Time;durP1;ratioP1;P1;durP2;ratioP2;P2;SDS_P1;SDS_P2;PMS_P1;PMS_P2;Temp;Humidity;BMP_temperature;BMP_pressure;BME280_temperature;BME280_humidity;BME280_pressure;Samples;Min_cycle;Max_cycle;Signal;HPM_P1;HPM_P2
2024/03/17 00:01:41;;;;;;;103.20;64.40;;;;;;;6.47;100.00;101379.11;106611;1250;72747;-73
2024/03/17 00:04:08;;;;;;;94.50;59.70;;;;;;;6.47;100.00;101376.50;106479;1251;60508;-74
2024/03/17 00:06:34;;;;;;;87.00;59.10;;;;;;;6.49;100.00;101377.85;106107;1251;60508;-76
2024/03/17 00:09:06;;;;;;;101.60;60.00;;;;;;;6.49;100.00;101377.48;106032;1254;73877;-74
2024/03/17 00:11:35;;;;;;;106.60;62.40;;;;;;;6.48;100.00;101377.17;106120;1253;63593;-75
2024/03/17 00:14:02;;;;;;;86.60;55.90;;;;;;;6.45;100.00;101377.95;105994;1251;72598;-74
2024/03/17 00:16:29;;;;;;;108.60;60.70;;;;;;;6.45;100.00;101374.83;106049;1253;61010;-73
2024/03/17 00:18:56;;;;;;;93.40;59.00;;;;;;;6.44;100.00;101373.98;105987;1250;60437;-74
2024/03/17 00:21:23;;;;;;;89.10;55.10;;;;;;;6.43;100.00;101378.37;105998;1253;73881;-72
2024/03/17 00:23:50;;;;;;;78.90;47.30;;;;;;;6.44;100.00;101374.70;105969;1253;63723;-73
2024/03/17 00:26:16;;;;;;;69.80;42.10;;;;;;;6.47;100.00;101373.56;105955;1252;60417;-75
2024/03/17 00:28:46;;;;;;;68.40;41.60;;;;;;;6.50;100.00;101372.23;105964;1251;60453;-74
2024/03/17 00:31:14;;;;;;;61.40;42.00;;;;;;;6.53;100.00;101373.71;106037;1251;60530;-74
2024/03/17 00:33:41;;;;;;;68.60;40.40;;;;;;;6.55;100.00;101372.60;105957;1252;73777;-73
2024/03/17 00:36:08;;;;;;;66.50;44.40;;;;;;;6.57;100.00;101367.34;106013;1253;63886;-74
2024/03/17 00:38:34;;;;;;;72.40;44.30;;;;;;;6.59;100.00;101365.18;106061;1254;72618;-75
2024/03/17 00:41:04;;;;;;;68.70;40.80;;;;;;;6.62;100.00;101369.08;107358;1249;61133;-72
2024/03/17 00:43:31;;;;;;;86.20;52.70;;;;;;;6.64;100.00;101369.35;107060;1251;60455;-75
2024/03/17 00:45:58;;;;;;;79.80;48.70;;;;;;;6.66;100.00;101367.39;106052;1251;73978;-75
2024/03/17 00:48:25;;;;;;;80.50;49.30;;;;;;;6.68;100.00;101362.84;105921;1250;60424;-73
2024/03/17 00:50:56;;;;;;;73.70;46.70;;;;;;;6.68;100.00;101367.17;106048;1251;72609;-73
2024/03/17 00:53:22;;;;;;;67.70;45.40;;;;;;;6.68;100.00;101368.21;106042;1253;60439;-72
2024/03/17 00:55:53;;;;;;;69.90;44.20;;;;;;;6.67;100.00;101366.33;105900;1251;60440;-75
2024/03/17 00:58:22;;;;;;;68.40;40.60;;;;;;;6.67;100.00;101364.42;105903;1251;72519;-75
2024/03/17 01:00:49;;;;;;;71.20;41.60;;;;;;;6.66;100.00;101364.98;106023;1251;62501;-75
2024/03/17 01:03:16;;;;;;;56.20;40.50;;;;;;;6.65;100.00;101366.40;105965;1251;72481;-74
2024/03/17 01:05:44;;;;;;;68.20;41.90;;;;;;;6.64;100.00;101363.80;106028;1250;61336;-75
2024/03/17 01:08:11;;;;;;;69.10;40.40;;;;;;;6.64;100.00;101359.13;105997;1253;61776;-74
2024/03/17 01:10:39;;;;;;;61.40;40.20;;;;;;;6.64;100.00;101354.08;106042;1253;74637;-74
2024/03/17 01:13:09;;;;;;;54.50;39.70;;;;;;;6.65;100.00;101353.02;105990;1253;63860;-74
2024/03/17 01:15:37;;;;;;;65.80;40.90;;;;;;;6.66;100.00;101356.81;105958;1251;72650;-74
2024/03/17 01:18:05;;;;;;;57.10;38.20;;;;;;;6.66;100.00;101351.23;106014;1249;61260;-75
2024/03/17 01:20:33;;;;;;;57.80;39.20;;;;;;;6.68;100.00;101345.27;106002;1251;61237;-74
2024/03/17 01:23:00;;;;;;;68.70;42.30;;;;;;;6.69;100.00;101348.36;106037;1253;74534;-74
2024/03/17 01:25:27;;;;;;;67.20;39.30;;;;;;;6.69;100.00;101347.65;105928;1251;61343;-72
2024/03/17 01:27:54;;;;;;;57.70;39.00;;;;;;;6.70;100.00;101345.02;105919;1249;71049;-76
2024/03/17 01:30:21;;;;;;;60.20;40.30;;;;;;;6.70;100.00;101342.09;106096;1253;61235;-74
2024/03/17 01:32:50;;;;;;;53.00;37.80;;;;;;;6.67;100.00;101340.80;105937;1251;61346;-74
2024/03/17 01:35:18;;;;;;;61.90;39.80;;;;;;;6.62;100.00;101341.79;105950;1253;74203;-76
2024/03/17 01:37:44;;;;;;;56.20;37.10;;;;;;;6.60;100.00;101339.43;105964;1253;63936;-73
2024/03/17 01:40:11;;;;;;;64.20;37.80;;;;;;;6.60;100.00;101341.34;105940;1251;61217;-75
2024/03/17 01:42:39;;;;;;;60.00;40.40;;;;;;;6.59;100.00;101343.29;106158;1253;61268;-74
2024/03/17 01:45:29;;;;;;;61.40;38.80;;;;;;;6.58;100.00;101339.48;105999;1250;61253;-75
2024/03/17 01:48:00;;;;;;;56.90;38.50;;;;;;;6.57;100.00;101345.27;105889;1253;74503;-75
2024/03/17 01:50:31;;;;;;;60.40;37.80;;;;;;;6.58;100.00;101341.94;105911;1253;63678;-74
2024/03/17 01:53:01;;;;;;;57.60;40.20;;;;;;;6.59;100.00;101340.67;106026;1253;72652;-75
2024/03/17 01:55:28;;;;;;;57.40;39.50;;;;;;;6.61;100.00;101337.51;106075;1253;61324;-73
2024/03/17 01:57:55;;;;;;;59.20;40.50;;;;;;;6.63;100.00;101337.09;105969;1251;61280;-73
2024/03/17 02:00:22;;;;;;;58.00;40.50;;;;;;;6.64;100.00;101338.27;105955;1252;74718;-74
2024/03/17 02:02:51;;;;;;;66.70;41.90;;;;;;;6.66;100.00;101337.54;105984;1254;63721;-75
2024/03/17 02:05:18;;;;;;;60.80;40.50;;;;;;;6.67;100.00;101336.97;106199;1251;72684;-75
2024/03/17 02:07:45;;;;;;;58.70;38.80;;;;;;;6.67;100.00;101336.61;106042;1252;61234;-73
2024/03/17 02:10:12;;;;;;;53.70;35.90;;;;;;;6.67;100.00;101338.35;106075;1251;61215;-73
2024/03/17 02:12:39;;;;;;;57.40;36.70;;;;;;;6.64;100.00;101334.77;106058;1251;74734;-74
2024/03/17 02:15:07;;;;;;;59.90;37.90;;;;;;;6.62;100.00;101335.02;105954;1251;64399;-76
2024/03/17 02:17:34;;;;;;;50.80;37.00;;;;;;;6.61;100.00;101335.59;106008;1250;72867;-74
2024/03/17 02:20:00;;;;;;;54.70;37.00;;;;;;;6.60;100.00;101330.92;106114;1251;61436;-74
2024/03/17 02:22:30;;;;;;;52.90;36.90;;;;;;;6.59;100.00;101330.08;106019;1251;61329;-77
2024/03/17 02:24:56;;;;;;;54.90;37.00;;;;;;;6.59;100.00;101326.61;106085;1251;74728;-76
2024/03/17 02:27:23;;;;;;;54.20;36.70;;;;;;;6.60;100.00;101326.94;106025;1251;63922;-75
2024/03/17 02:29:50;;;;;;;48.50;34.90;;;;;;;6.59;100.00;101326.24;106002;1251;71216;-77
2024/03/17 02:32:17;;;;;;;58.10;38.20;;;;;;;6.57;100.00;101327.17;105908;1250;61243;-74
2024/03/17 02:34:44;;;;;;;55.40;35.70;;;;;;;6.56;100.00;101324.99;105973;1251;61326;-75
2024/03/17 02:37:12;;;;;;;53.40;34.80;;;;;;;6.54;100.00;101324.52;106080;1252;74719;-73
2024/03/17 02:39:38;;;;;;;50.80;36.90;;;;;;;6.52;100.00;101323.00;106028;1250;62369;-73
2024/03/17 02:42:09;;;;;;;55.70;36.50;;;;;;;6.53;100.00;101324.91;106007;1251;71461;-74
2024/03/17 02:44:36;;;;;;;52.90;35.40;;;;;;;6.53;100.00;101320.72;106081;1253;61222;-73
2024/03/17 02:47:04;;;;;;;52.30;37.20;;;;;;;6.54;100.00;101320.88;106073;1253;61221;-77
2024/03/17 02:49:39;;;;;;;55.20;35.80;;;;;;;6.55;100.00;101323.08;106040;1252;74621;-76
2024/03/17 02:52:07;;;;;;;59.10;40.60;;;;;;;6.56;100.00;101323.77;106052;1253;63580;-76
2024/03/17 02:54:35;;;;;;;65.00;42.40;;;;;;;6.56;100.00;101322.73;106032;1251;72523;-75
2024/03/17 02:57:06;;;;;;;62.60;42.40;;;;;;;6.55;100.00;101325.02;106042;1253;61221;-75
2024/03/17 02:59:33;;;;;;;54.90;36.90;;;;;;;6.54;100.00;101320.89;105997;1253;61140;-74
2024/03/17 03:01:59;;;;;;;54.60;36.80;;;;;;;6.52;100.00;101317.45;105974;1253;74534;-74
2024/03/17 03:04:26;;;;;;;50.30;37.40;;;;;;;6.52;100.00;101317.47;105986;1253;63823;-75
2024/03/17 03:06:54;;;;;;;51.00;36.50;;;;;;;6.51;100.00;101317.13;106044;1250;71115;-75
2024/03/17 03:09:31;;;;;;;50.90;37.00;;;;;;;6.51;100.00;101318.19;106067;1253;61109;-76
2024/03/17 03:12:00;;;;;;;54.10;39.70;;;;;;;6.51;100.00;101320.97;106023;1250;61288;-74
2024/03/17 03:14:26;;;;;;;60.70;43.70;;;;;;;6.50;100.00;101321.37;106050;1253;74570;-75
2024/03/17 03:16:53;;;;;;;52.30;37.00;;;;;;;6.48;100.00;101318.27;105989;1251;63673;-76
2024/03/17 03:19:19;;;;;;;56.10;39.40;;;;;;;6.48;100.00;101319.48;106050;1253;72371;-73
2024/03/17 03:21:47;;;;;;;49.80;35.70;;;;;;;6.47;100.00;101319.72;105998;1253;61175;-72
2024/03/17 03:24:14;;;;;;;54.40;37.40;;;;;;;6.47;100.00;101318.67;106100;1254;61234;-73
2024/03/17 03:26:41;;;;;;;50.10;37.50;;;;;;;6.46;100.00;101317.48;106317;1253;74437;-73
2024/03/17 03:29:07;;;;;;;56.90;38.60;;;;;;;6.46;100.00;101321.48;108499;1250;63901;-72
2024/03/17 03:31:34;;;;;;;60.70;40.60;;;;;;;6.47;100.00;101318.48;109094;1250;72670;-73
2024/03/17 03:34:01;;;;;;;57.00;39.60;;;;;;;6.48;100.00;101321.24;106899;1251;61230;-72
2024/03/17 03:36:30;;;;;;;56.80;39.90;;;;;;;6.49;100.00;101319.63;106217;1251;61314;-71
2024/03/17 03:38:58;;;;;;;61.60;41.60;;;;;;;6.52;100.00;101323.52;106654;1253;73429;-73
2024/03/17 03:41:25;;;;;;;66.10;41.90;;;;;;;6.55;100.00;101319.09;106506;1253;62588;-73
2024/03/17 03:43:51;;;;;;;59.80;43.00;;;;;;;6.58;100.00;101316.92;107689;1250;60005;-72
2024/03/17 03:46:20;;;;;;;74.90;49.50;;;;;;;6.61;100.00;101320.83;106179;1254;61217;-74
2024/03/17 03:48:47;;;;;;;62.20;41.20;;;;;;;6.62;100.00;101319.75;106044;1250;61300;-73
2024/03/17 03:51:14;;;;;;;66.20;43.30;;;;;;;6.62;100.00;101316.62;105997;1254;74511;-73
2024/03/17 03:53:42;;;;;;;65.40;44.10;;;;;;;6.63;100.00;101316.59;105888;1250;63811;-73
2024/03/17 03:56:10;;;;;;;69.80;43.70;;;;;;;6.62;100.00;101310.85;105985;1253;72826;-74
2024/03/17 03:58:37;;;;;;;63.60;42.30;;;;;;;6.60;100.00;101314.23;105989;1253;61422;-74
2024/03/17 04:01:08;;;;;;;71.30;46.50;;;;;;;6.56;100.00;101314.02;106075;1253;60849;-75
2024/03/17 04:03:34;;;;;;;70.90;45.70;;;;;;;6.53;100.00;101314.98;106011;1251;74375;-74
2024/03/17 04:06:09;;;;;;;71.80;43.80;;;;;;;6.52;100.00;101316.26;106058;1253;63994;-73
2024/03/17 04:08:42;;;;;;;66.50;42.30;;;;;;;6.50;100.00;101317.18;105831;1257;71665;-75
2024/03/17 04:11:09;;;;;;;62.80;42.40;;;;;;;6.47;100.00;101313.96;106020;1251;61342;-75
2024/03/17 04:13:35;;;;;;;71.20;47.40;;;;;;;6.46;100.00;101312.43;106030;1253;61245;-74
2024/03/17 04:16:06;;;;;;;75.90;44.80;;;;;;;6.47;100.00;101317.29;106057;1251;61394;-75
2024/03/17 04:18:34;;;;;;;78.40;44.40;;;;;;;6.46;100.00;101311.73;106079;1253;63700;-74
2024/03/17 04:21:03;;;;;;;71.80;46.40;;;;;;;6.46;100.00;101314.86;106005;1254;72765;-74
2024/03/17 04:23:32;;;;;;;75.70;46.40;;;;;;;6.47;100.00;101314.67;106106;1253;61329;-73
2024/03/17 04:25:59;;;;;;;72.90;44.40;;;;;;;6.48;100.00;101315.84;106026;1251;61342;-74
2024/03/17 04:28:26;;;;;;;75.30;46.50;;;;;;;6.48;100.00;101315.32;106100;1253;74952;-76
2024/03/17 04:30:52;;;;;;;78.20;49.20;;;;;;;6.48;100.00;101315.50;106002;1251;61342;-75
2024/03/17 04:33:19;;;;;;;74.80;45.00;;;;;;;6.48;100.00;101313.76;106104;1251;71235;-73
2024/03/17 04:35:46;;;;;;;70.80;45.00;;;;;;;6.50;100.00;101317.19;106049;1250;61215;-75
2024/03/17 04:38:14;;;;;;;78.00;46.30;;;;;;;6.50;100.00;101315.27;106091;1251;61326;-74
2024/03/17 04:40:41;;;;;;;78.50;47.30;;;;;;;6.48;100.00;101312.19;106028;1253;73402;-74
2024/03/17 04:43:08;;;;;;;72.30;46.60;;;;;;;6.50;100.00;101314.77;106005;1251;62887;-76
2024/03/17 04:45:35;;;;;;;86.50;53.30;;;;;;;6.52;100.00;101317.27;106006;1253;71232;-74
2024/03/17 04:48:02;;;;;;;77.00;49.20;;;;;;;6.54;100.00;101316.86;105989;1254;61596;-74
2024/03/17 04:50:31;;;;;;;76.20;48.90;;;;;;;6.55;100.00;101315.09;106121;1251;61475;-74
2024/03/17 04:52:59;;;;;;;80.00;48.20;;;;;;;6.56;100.00;101314.40;106039;1251;74425;-74
2024/03/17 04:55:26;;;;;;;70.80;44.90;;;;;;;6.56;100.00;101314.73;106098;1253;63639;-73
2024/03/17 04:57:53;;;;;;;77.60;48.00;;;;;;;6.57;100.00;101313.83;106031;1251;72711;-72
2024/03/17 05:00:21;;;;;;;73.60;46.50;;;;;;;6.57;100.00;101314.35;106115;1253;61218;-73
2024/03/17 05:02:48;;;;;;;71.80;47.40;;;;;;;6.56;100.00;101314.02;106098;1251;61323;-76
2024/03/17 05:05:14;;;;;;;77.50;47.80;;;;;;;6.55;100.00;101316.50;105929;1251;73495;-74
2024/03/17 05:07:41;;;;;;;72.80;45.70;;;;;;;6.53;100.00;101315.33;106011;1251;63934;-75
2024/03/17 05:10:08;;;;;;;73.30;44.70;;;;;;;6.53;100.00;101319.32;106006;1252;61262;-73
2024/03/17 05:12:34;;;;;;;71.90;45.40;;;;;;;6.53;100.00;101319.33;105995;1254;61235;-75
2024/03/17 05:15:01;;;;;;;71.80;44.40;;;;;;;6.52;100.00;101319.89;106013;1250;61263;-75
2024/03/17 05:17:28;;;;;;;75.10;42.80;;;;;;;6.50;100.00;101318.76;105975;1253;74739;-74
2024/03/17 05:19:56;;;;;;;72.30;44.50;;;;;;;6.48;100.00;101316.36;106020;1254;63726;-75
2024/03/17 05:22:22;;;;;;;71.20;43.90;;;;;;;6.48;100.00;101318.11;106040;1253;72458;-74
2024/03/17 05:24:49;;;;;;;79.20;47.70;;;;;;;6.48;100.00;101320.73;106113;1254;61317;-73
2024/03/17 05:27:16;;;;;;;73.40;46.20;;;;;;;6.48;100.00;101316.73;106065;1251;61361;-75
2024/03/17 05:29:42;;;;;;;74.50;46.40;;;;;;;6.48;100.00;101314.83;105996;1256;61208;-74
2024/03/17 05:32:09;;;;;;;69.50;40.90;;;;;;;6.47;100.00;101319.88;105959;1253;64255;-74
2024/03/17 05:34:37;;;;;;;71.60;41.70;;;;;;;6.45;100.00;101317.16;105958;1251;72585;-76
2024/03/17 05:37:05;;;;;;;68.50;40.40;;;;;;;6.44;100.00;101316.29;106097;1253;61669;-74
2024/03/17 05:39:35;;;;;;;66.80;41.10;;;;;;;6.43;100.00;101317.56;106073;1251;61260;-74
2024/03/17 05:42:03;;;;;;;67.70;40.80;;;;;;;6.43;100.00;101318.78;105963;1252;74622;-74
2024/03/17 05:44:49;;;;;;;71.50;40.60;;;;;;;6.44;100.00;101316.83;106081;1254;63887;-74
2024/03/17 05:47:22;;;;;;;69.80;39.60;;;;;;;6.47;100.00;101320.75;106066;1254;72511;-76
2024/03/17 05:49:52;;;;;;;63.00;40.70;;;;;;;6.48;100.00;101318.11;105993;1250;61330;-77
2024/03/17 05:52:19;;;;;;;62.90;39.20;;;;;;;6.49;100.00;101322.77;105952;1251;61282;-76
2024/03/17 05:54:45;;;;;;;63.90;38.60;;;;;;;6.51;100.00;101324.80;106036;1251;74469;-77
2024/03/17 05:57:13;;;;;;;64.00;41.50;;;;;;;6.51;100.00;101327.38;105920;1252;61909;-78
2024/03/17 05:59:41;;;;;;;76.30;45.80;;;;;;;6.53;100.00;101325.08;106039;1251;72422;-74
2024/03/17 06:02:10;;;;;;;67.80;41.20;;;;;;;6.56;100.00;101330.02;106250;1253;61336;-75
2024/03/17 06:04:38;;;;;;;72.00;43.20;;;;;;;6.58;100.00;101334.28;106034;1254;61234;-76
2024/03/17 06:07:05;;;;;;;75.10;44.70;;;;;;;6.61;100.00;101335.73;106103;1254;73706;-75
2024/03/17 06:09:33;;;;;;;74.90;43.80;;;;;;;6.64;100.00;101335.65;106047;1254;64209;-76
2024/03/17 06:12:00;;;;;;;64.70;39.70;;;;;;;6.68;100.00;101336.41;106085;1251;72604;-75
2024/03/17 06:14:27;;;;;;;64.40;40.20;;;;;;;6.71;100.00;101329.19;106061;1252;61333;-75
2024/03/17 06:16:54;;;;;;;61.70;40.00;;;;;;;6.72;100.00;101319.27;106234;1253;61401;-75
2024/03/17 06:19:20;;;;;;;63.90;38.80;;;;;;;6.70;100.00;101316.17;108270;1250;75878;-74
2024/03/17 06:21:47;;;;;;;78.20;48.50;;;;;;;6.69;100.00;101324.73;106042;1253;63887;-75
2024/03/17 06:24:13;;;;;;;60.00;40.10;;;;;;;6.69;100.00;101330.44;105953;1251;72716;-76
2024/03/17 06:26:41;;;;;;;60.70;37.50;;;;;;;6.73;100.00;101332.23;106109;1254;61197;-74
2024/03/17 06:29:07;;;;;;;58.80;36.90;;;;;;;6.78;100.00;101332.23;106525;1253;61183;-74
2024/03/17 06:31:34;;;;;;;55.20;35.60;;;;;;;6.82;100.00;101331.45;105965;1254;61169;-74
2024/03/17 06:34:00;;;;;;;58.00;35.40;;;;;;;6.85;100.00;101330.80;106079;1251;61307;-75
2024/03/17 06:36:27;;;;;;;64.70;37.70;;;;;;;6.89;100.00;101326.35;106005;1254;61365;-75
2024/03/17 06:38:54;;;;;;;58.60;36.40;;;;;;;6.91;100.00;101327.14;106034;1263;61212;-74
2024/03/17 06:41:21;;;;;;;59.00;36.60;;;;;;;6.94;100.00;101327.21;106012;1252;61246;-74
2024/03/17 06:43:47;;;;;;;56.30;35.10;;;;;;;6.97;100.00;101331.63;106282;1254;74985;-75
2024/03/17 06:46:13;;;;;;;59.80;38.20;;;;;;;6.99;100.00;101328.79;106036;1256;61436;-77
2024/03/17 06:48:40;;;;;;;63.80;36.80;;;;;;;7.02;100.00;101328.52;106016;1251;61397;-74
2024/03/17 06:51:07;;;;;;;58.00;35.10;;;;;;;7.05;100.00;101330.50;106025;1251;61324;-75
2024/03/17 06:53:34;;;;;;;59.60;35.90;;;;;;;7.10;100.00;101328.23;106048;1251;61329;-77
2024/03/17 06:56:01;;;;;;;55.60;33.40;;;;;;;7.16;100.00;101332.54;106066;1253;74702;-74
2024/03/17 06:58:29;;;;;;;58.30;33.50;;;;;;;7.23;100.00;101328.14;106045;1253;62793;-75
2024/03/17 07:00:57;;;;;;;53.80;32.50;;;;;;;7.30;100.00;101331.37;106073;1254;72671;-76
2024/03/17 07:03:27;;;;;;;62.00;35.70;;;;;;;7.38;100.00;101331.78;106058;1254;61211;-74
2024/03/17 07:05:55;;;;;;;56.70;34.90;;;;;;;7.47;100.00;101329.41;106032;1251;61211;-75
2024/03/17 07:08:23;;;;;;;60.30;33.90;;;;;;;7.55;100.00;101329.45;106004;1251;75525;-74
2024/03/17 07:11:03;;;;;;;56.90;34.20;;;;;;;7.62;100.00;101330.94;105960;1255;63670;-74
2024/03/17 07:13:38;;;;;;;59.90;36.60;;;;;;;7.69;100.00;101330.52;106084;1254;71311;-77
2024/03/17 07:16:06;;;;;;;59.40;34.40;;;;;;;7.72;100.00;101325.17;106055;1256;61228;-76
2024/03/17 07:18:32;;;;;;;56.50;32.60;;;;;;;7.76;100.00;101322.26;106064;1253;61214;-75
2024/03/17 07:21:00;;;;;;;55.70;35.40;;;;;;;7.80;100.00;101318.63;105998;1257;74676;-76
2024/03/17 07:23:27;;;;;;;59.90;35.60;;;;;;;7.84;100.00;101316.90;106138;1254;63968;-76
2024/03/17 07:25:59;;;;;;;60.60;34.00;;;;;;;7.91;100.00;101319.79;106030;1257;72705;-75
2024/03/17 07:28:26;;;;;;;54.70;34.90;;;;;;;7.96;100.00;101317.67;106773;1254;61327;-74
2024/03/17 07:30:57;;;;;;;56.90;34.10;;;;;;;8.02;100.00;101314.80;106163;1251;61266;-76
2024/03/17 07:33:24;;;;;;;58.50;34.70;;;;;;;8.09;100.00;101313.88;106042;1253;74372;-76
2024/03/17 07:35:52;;;;;;;62.40;34.40;;;;;;;8.14;100.00;101312.98;106067;1255;63779;-75
2024/03/17 07:38:19;;;;;;;54.70;34.40;;;;;;;8.22;100.00;101315.30;106026;1251;74092;-75
2024/03/17 07:40:57;;;;;;;59.00;34.60;;;;;;;8.27;100.00;101315.08;105751;1260;61340;-77
2024/03/17 07:43:24;;;;;;;59.10;34.50;;;;;;;8.32;100.00;101313.51;106122;1250;61259;-77
2024/03/17 07:46:02;;;;;;;54.20;34.00;;;;;;;8.37;100.00;101315.39;106089;1253;74621;-77
2024/03/17 07:48:31;;;;;;;56.50;33.20;;;;;;;8.44;100.00;101315.30;106053;1254;63807;-78
2024/03/17 07:51:03;;;;;;;55.80;33.30;;;;;;;8.51;100.00;101314.52;106060;1251;72773;-77
2024/03/17 07:54:02;;;;;;;60.50;36.50;;;;;;;8.58;100.00;101312.68;105983;1253;62085;-76
2024/03/17 07:56:30;;;;;;;58.90;34.90;;;;;;;8.64;100.00;101314.00;106126;1254;61362;-75
2024/03/17 07:58:57;;;;;;;57.60;34.60;;;;;;;8.71;100.00;101316.33;106082;1251;74718;-75
2024/03/17 08:01:24;;;;;;;53.70;33.40;;;;;;;8.76;100.00;101315.43;105980;1254;62633;-75
2024/03/17 08:03:55;;;;;;;57.40;34.30;;;;;;;8.81;100.00;101318.73;106033;1253;72676;-77
2024/03/17 08:06:22;;;;;;;55.70;34.40;;;;;;;8.89;100.00;101313.49;105967;1251;61900;-76
2024/03/17 08:08:49;;;;;;;59.30;35.90;;;;;;;8.97;100.00;101315.24;106001;1251;61381;-77
2024/03/17 08:11:16;;;;;;;64.60;38.10;;;;;;;9.05;100.00;101310.39;105981;1256;74628;-75
2024/03/17 08:13:43;;;;;;;57.60;37.60;;;;;;;9.12;100.00;101311.27;106009;1253;63874;-76
2024/03/17 08:16:10;;;;;;;57.00;35.20;;;;;;;9.21;100.00;101310.20;106257;1256;72583;-77
2024/03/17 08:18:37;;;;;;;58.20;36.80;;;;;;;9.31;100.00;101313.96;106670;1254;61086;-76
2024/03/17 08:21:06;;;;;;;56.70;35.40;;;;;;;9.42;100.00;101308.09;106163;1253;61325;-75
2024/03/17 08:23:39;;;;;;;53.60;34.00;;;;;;;9.52;100.00;101309.38;105948;1251;74504;-77
2024/03/17 08:26:06;;;;;;;54.10;34.80;;;;;;;9.61;100.00;101302.50;106085;1253;63056;-77
2024/03/17 08:28:34;;;;;;;51.10;32.30;;;;;;;9.69;100.00;101301.11;106081;1253;72690;-77
2024/03/17 08:31:02;;;;;;;52.70;35.70;;;;;;;9.77;100.00;101299.17;106053;1255;63101;-76
2024/03/17 08:33:29;;;;;;;49.70;32.90;;;;;;;9.87;100.00;101299.25;106054;1251;61208;-77
2024/03/17 08:35:57;;;;;;;51.20;31.60;;;;;;;9.98;100.00;101299.09;105986;1253;73012;-75
2024/03/17 08:38:24;;;;;;;60.30;33.40;;;;;;;10.05;100.00;101294.94;106053;1253;63683;-76
2024/03/17 08:40:52;;;;;;;53.40;31.90;;;;;;;10.11;100.00;101292.88;106040;1253;72654;-75
2024/03/17 08:43:19;;;;;;;46.00;29.60;;;;;;;10.20;100.00;101291.58;106033;1253;61765;-75
2024/03/17 08:45:55;;;;;;;50.50;31.10;;;;;;;10.28;100.00;101290.71;106004;1254;61211;-75
2024/03/17 08:48:22;;;;;;;45.50;31.10;;;;;;;10.33;100.00;101285.38;106042;1253;72797;-75
2024/03/17 08:50:53;;;;;;;46.10;32.30;;;;;;;10.40;100.00;101288.21;106062;1263;63076;-76
2024/03/17 08:53:21;;;;;;;45.80;29.60;;;;;;;10.45;100.00;101286.38;105986;1251;72649;-75
2024/03/17 08:55:48;;;;;;;43.70;31.10;;;;;;;10.47;100.00;101284.56;106055;1251;61906;-75
2024/03/17 08:58:15;;;;;;;43.90;29.80;;;;;;;10.48;100.00;101284.14;106033;1254;61230;-77
2024/03/17 09:00:42;;;;;;;44.40;29.80;;;;;;;10.49;100.00;101284.27;106026;1253;73683;-76
2024/03/17 09:03:12;;;;;;;44.30;30.60;;;;;;;10.54;100.00;101285.23;105963;1253;65544;-76
2024/03/17 09:05:40;;;;;;;48.70;30.80;;;;;;;10.62;100.00;101286.28;105993;1257;72758;-75
2024/03/17 09:08:10;;;;;;;57.20;31.20;;;;;;;10.66;100.00;101283.27;106042;1256;61262;-74
2024/03/17 09:13:37;;;;;;;51.20;35.90;;;;;;;10.68;100.00;101278.11;103524;1283;600362;-76
2024/03/17 09:16:05;;;;;;;59.20;37.30;;;;;;;10.70;100.00;101280.80;105017;1269;62017;-76
2024/03/17 09:18:33;;;;;;;56.90;38.10;;;;;;;10.75;100.00;101275.65;105029;1270;59570;-78
2024/03/17 09:21:05;;;;;;;56.20;37.50;;;;;;;10.78;100.00;101275.30;104973;1264;73606;-76
2024/03/17 09:23:38;;;;;;;54.90;38.60;;;;;;;10.82;100.00;101270.59;105429;1260;66126;-75
2024/03/17 09:26:10;;;;;;;54.60;36.60;;;;;;;10.82;100.00;101269.34;105274;1257;212475;-76
2024/03/17 09:28:37;;;;;;;46.00;32.30;;;;;;;10.80;100.00;101267.17;105662;1259;61512;-74
2024/03/17 09:31:06;;;;;;;50.50;31.50;;;;;;;10.78;100.00;101263.92;105661;1254;59681;-74
2024/03/17 09:33:34;;;;;;;45.30;29.20;;;;;;;10.76;100.00;101265.27;105681;1260;72812;-75
2024/03/17 09:36:06;;;;;;;43.80;30.00;;;;;;;10.75;100.00;101263.56;105720;1255;64659;-76
2024/03/17 09:38:34;;;;;;;48.20;30.50;;;;;;;10.75;100.00;101266.56;105622;1257;72826;-75
2024/03/17 09:41:02;;;;;;;42.30;28.30;;;;;;;10.76;100.00;101263.33;105584;1257;61709;-75
2024/03/17 09:43:33;;;;;;;42.80;29.30;;;;;;;10.78;100.00;101264.30;105615;1261;61267;-76
2024/03/17 09:46:04;;;;;;;46.80;28.80;;;;;;;10.83;100.00;101265.85;105345;1255;73827;-76
2024/03/17 09:48:32;;;;;;;40.10;27.80;;;;;;;10.87;100.00;101261.94;105465;1260;63588;-76
2024/03/17 09:51:00;;;;;;;41.00;28.80;;;;;;;10.90;100.00;101260.39;105713;1254;71196;-77
2024/03/17 09:53:33;;;;;;;38.80;28.30;;;;;;;10.92;100.00;101262.19;105650;1260;62641;-77
2024/03/17 09:56:01;;;;;;;43.20;29.40;;;;;;;10.95;100.00;101259.77;105693;1254;60840;-76
2024/03/17 09:58:30;;;;;;;45.10;29.00;;;;;;;11.01;100.00;101260.85;105478;1255;72497;-77
2024/03/17 10:00:57;;;;;;;34.00;23.50;;;;;;;11.07;100.00;101258.61;105578;1260;64342;-78
2024/03/17 10:04:03;;;;;;;37.30;25.20;;;;;;;11.12;100.00;101259.23;105443;1254;72667;-77
2024/03/17 10:06:34;;;;;;;35.80;24.30;;;;;;;11.15;100.00;101258.02;105151;1260;62267;-76
2024/03/17 10:09:03;;;;;;;38.10;25.50;;;;;;;11.17;100.00;101256.54;105270;1265;62298;-76
2024/03/17 10:11:38;;;;;;;38.00;24.30;;;;;;;11.20;100.00;101253.21;105203;1265;73635;-77
2024/03/17 10:14:07;;;;;;;34.10;23.30;;;;;;;11.23;100.00;101255.88;105315;1264;63620;-75
2024/03/17 10:16:36;;;;;;;35.10;21.30;;;;;;;11.25;100.00;101256.67;105236;1260;75411;-75
2024/03/17 10:19:07;;;;;;;31.90;20.40;;;;;;;11.24;100.00;101254.44;105175;1264;60551;-78
2024/03/17 10:21:35;;;;;;;31.50;21.40;;;;;;;11.14;100.00;101257.22;105185;1260;60492;-76
2024/03/17 10:24:13;;;;;;;27.90;19.50;;;;;;;11.04;100.00;101251.08;105459;1262;77832;-75
2024/03/17 10:26:46;;;;;;;29.00;18.90;;;;;;;10.97;100.00;101248.98;105375;1262;63457;-76
2024/03/17 10:29:27;;;;;;;28.90;21.00;;;;;;;10.97;100.00;101246.90;105416;1260;71059;-76
2024/03/17 10:31:55;;;;;;;28.30;19.70;;;;;;;11.04;100.00;101244.08;105330;1257;63797;-76
2024/03/17 10:34:25;;;;;;;30.10;19.50;;;;;;;11.15;100.00;101240.90;105375;1263;60642;-76
2024/03/17 10:37:32;;;;;;;32.90;18.90;;;;;;;11.24;100.00;101237.77;105497;1262;74126;-77
2024/03/17 10:39:59;;;;;;;28.70;20.60;;;;;;;11.30;100.00;101235.88;105292;1262;64485;-76
2024/03/17 10:42:28;;;;;;;22.70;17.70;;;;;;;11.34;100.00;101233.77;105465;1260;73091;-77
2024/03/17 10:44:56;;;;;;;29.10;19.00;;;;;;;11.37;100.00;101232.36;105868;1255;60981;-77
2024/03/17 10:47:25;;;;;;;29.60;19.10;;;;;;;11.38;100.00;101225.11;105620;1256;60811;-75
2024/03/17 10:49:54;;;;;;;27.60;18.80;;;;;;;11.40;100.00;101225.57;105822;1256;72425;-78
2024/03/17 10:52:25;;;;;;;24.40;16.50;;;;;;;11.34;100.00;101225.70;105733;1251;63606;-76
2024/03/17 10:55:02;;;;;;;30.50;19.80;;;;;;;11.28;100.00;101219.55;105677;1254;72450;-76
2024/03/17 10:57:49;;;;;;;24.50;18.80;;;;;;;11.23;100.00;101217.23;105692;1259;61663;-76
2024/03/17 11:00:19;;;;;;;27.10;16.80;;;;;;;11.20;100.00;101216.27;105759;1252;60416;-75
2024/03/17 11:02:46;;;;;;;24.10;16.60;;;;;;;11.19;100.00;101217.94;105804;1254;72920;-76
2024/03/17 11:05:22;;;;;;;29.20;18.10;;;;;;;11.18;100.00;101215.15;105897;1254;62407;-76
2024/03/17 11:07:50;;;;;;;26.60;18.80;;;;;;;11.16;100.00;101215.60;105850;1255;73280;-76
2024/03/17 11:22:40;;;;;;;22.10;15.70;;;;;;;10.99;100.00;101211.47;103306;1286;600433;-76